sensor_id;sensor_type;location;lat;lon;timestamp;temperature;humidity
24217;DHT22;12356;49.386;8.688;2023-07-22T00:01:47;19.90;5.20
24217;DHT22;12356;49.386;8.688;2023-07-22T00:04:18;19.90;5.90
24217;DHT22;12356;49.386;8.688;2023-07-22T00:06:49;19.90;5.60
24217;DHT22;12356;49.386;8.688;2023-07-22T00:09:19;19.90;5.50
24217;DHT22;12356;49.386;8.688;2023-07-22T00:11:50;19.90;5.10
24217;DHT22;12356;49.386;8.688;2023-07-22T00:14:21;19.90;5.40
24217;DHT22;12356;49.386;8.688;2023-07-22T00:16:51;19.90;5.50
24217;DHT22;12356;49.386;8.688;2023-07-22T00:19:22;20.00;5.40
24217;DHT22;12356;49.386;8.688;2023-07-22T00:21:53;20.00;4.80
24217;DHT22;12356;49.386;8.688;2023-07-22T00:24:25;20.00;5.30
24217;DHT22;12356;49.386;8.688;2023-07-22T00:26:56;20.00;5.60
24217;DHT22;12356;49.386;8.688;2023-07-22T00:29:26;20.00;5.80
24217;DHT22;12356;49.386;8.688;2023-07-22T00:31:57;20.00;5.80
24217;DHT22;12356;49.386;8.688;2023-07-22T00:34:27;20.10;5.70
24217;DHT22;12356;49.386;8.688;2023-07-22T00:36:58;20.10;5.50
24217;DHT22;12356;49.386;8.688;2023-07-22T00:39:29;20.10;5.80
24217;DHT22;12356;49.386;8.688;2023-07-22T00:42:00;20.10;6.10
24217;DHT22;12356;49.386;8.688;2023-07-22T00:44:30;20.10;6.40
24217;DHT22;12356;49.386;8.688;2023-07-22T00:47:01;20.10;6.70
24217;DHT22;12356;49.386;8.688;2023-07-22T00:49:32;20.00;6.90
24217;DHT22;12356;49.386;8.688;2023-07-22T00:52:03;19.90;7.00
24217;DHT22;12356;49.386;8.688;2023-07-22T00:54:33;19.90;6.90
24217;DHT22;12356;49.386;8.688;2023-07-22T00:57:04;19.90;7.10
24217;DHT22;12356;49.386;8.688;2023-07-22T00:59:35;19.90;7.30
24217;DHT22;12356;49.386;8.688;2023-07-22T01:02:06;19.80;7.10
24217;DHT22;12356;49.386;8.688;2023-07-22T01:04:37;19.80;7.30
24217;DHT22;12356;49.386;8.688;2023-07-22T01:07:08;19.80;7.30
24217;DHT22;12356;49.386;8.688;2023-07-22T01:09:40;19.80;7.40
24217;DHT22;12356;49.386;8.688;2023-07-22T01:12:11;19.80;7.00
24217;DHT22;12356;49.386;8.688;2023-07-22T01:14:44;19.80;7.10
24217;DHT22;12356;49.386;8.688;2023-07-22T01:17:14;19.70;7.40
24217;DHT22;12356;49.386;8.688;2023-07-22T01:19:46;19.80;7.80
24217;DHT22;12356;49.386;8.688;2023-07-22T01:22:17;19.70;8.00
24217;DHT22;12356;49.386;8.688;2023-07-22T01:24:48;19.70;8.30
24217;DHT22;12356;49.386;8.688;2023-07-22T01:27:18;19.60;8.70
24217;DHT22;12356;49.386;8.688;2023-07-22T01:29:53;19.60;8.30
24217;DHT22;12356;49.386;8.688;2023-07-22T01:32:24;19.60;7.80
24217;DHT22;12356;49.386;8.688;2023-07-22T01:34:54;19.60;8.90
24217;DHT22;12356;49.386;8.688;2023-07-22T01:37:25;19.70;8.50
24217;DHT22;12356;49.386;8.688;2023-07-22T01:39:55;19.70;7.70
24217;DHT22;12356;49.386;8.688;2023-07-22T01:42:27;19.70;8.00
24217;DHT22;12356;49.386;8.688;2023-07-22T01:44:58;19.70;8.60
24217;DHT22;12356;49.386;8.688;2023-07-22T01:47:28;19.60;8.20
24217;DHT22;12356;49.386;8.688;2023-07-22T01:49:59;19.60;8.50
24217;DHT22;12356;49.386;8.688;2023-07-22T01:52:29;19.60;8.50
24217;DHT22;12356;49.386;8.688;2023-07-22T01:55:00;19.50;8.80
24217;DHT22;12356;49.386;8.688;2023-07-22T01:57:32;19.50;8.90
24217;DHT22;12356;49.386;8.688;2023-07-22T02:00:03;19.50;8.80
24217;DHT22;12356;49.386;8.688;2023-07-22T02:02:35;19.50;8.70
24217;DHT22;12356;49.386;8.688;2023-07-22T02:05:06;19.60;9.20
24217;DHT22;12356;49.386;8.688;2023-07-22T02:07:37;19.60;8.60
24217;DHT22;12356;49.386;8.688;2023-07-22T02:10:08;19.60;8.60
24217;DHT22;12356;49.386;8.688;2023-07-22T02:12:40;19.60;8.40
24217;DHT22;12356;49.386;8.688;2023-07-22T02:15:10;19.60;8.10
24217;DHT22;12356;49.386;8.688;2023-07-22T02:17:41;19.60;7.80
24217;DHT22;12356;49.386;8.688;2023-07-22T02:20:11;19.50;7.70
24217;DHT22;12356;49.386;8.688;2023-07-22T02:22:43;19.50;8.10
24217;DHT22;12356;49.386;8.688;2023-07-22T02:25:13;19.60;8.90
24217;DHT22;12356;49.386;8.688;2023-07-22T02:27:45;19.60;8.50
24217;DHT22;12356;49.386;8.688;2023-07-22T02:30:16;19.60;7.90
24217;DHT22;12356;49.386;8.688;2023-07-22T02:32:47;19.70;7.80
24217;DHT22;12356;49.386;8.688;2023-07-22T02:35:18;19.70;8.00
24217;DHT22;12356;49.386;8.688;2023-07-22T02:37:49;19.70;8.70
24217;DHT22;12356;49.386;8.688;2023-07-22T02:40:19;19.70;8.50
24217;DHT22;12356;49.386;8.688;2023-07-22T02:42:50;19.70;7.80
24217;DHT22;12356;49.386;8.688;2023-07-22T02:45:20;19.60;7.70
24217;DHT22;12356;49.386;8.688;2023-07-22T02:47:51;19.70;7.80
24217;DHT22;12356;49.386;8.688;2023-07-22T02:50:22;19.70;7.60
24217;DHT22;12356;49.386;8.688;2023-07-22T02:52:52;19.70;8.10
24217;DHT22;12356;49.386;8.688;2023-07-22T02:55:23;19.80;8.30
24217;DHT22;12356;49.386;8.688;2023-07-22T02:57:53;19.70;7.40
24217;DHT22;12356;49.386;8.688;2023-07-22T03:00:24;19.80;8.20
24217;DHT22;12356;49.386;8.688;2023-07-22T03:02:56;19.70;9.10
24217;DHT22;12356;49.386;8.688;2023-07-22T03:05:35;19.70;10.10
24217;DHT22;12356;49.386;8.688;2023-07-22T03:08:05;19.70;10.30
24217;DHT22;12356;49.386;8.688;2023-07-22T03:10:37;19.70;11.50
24217;DHT22;12356;49.386;8.688;2023-07-22T03:13:07;19.70;13.40
24217;DHT22;12356;49.386;8.688;2023-07-22T03:15:38;19.70;15.20
24217;DHT22;12356;49.386;8.688;2023-07-22T03:18:09;19.70;18.30
24217;DHT22;12356;49.386;8.688;2023-07-22T03:20:42;19.60;19.20
24217;DHT22;12356;49.386;8.688;2023-07-22T03:23:13;19.50;20.90
24217;DHT22;12356;49.386;8.688;2023-07-22T03:25:43;19.40;20.00
24217;DHT22;12356;49.386;8.688;2023-07-22T03:28:14;19.30;20.20
24217;DHT22;12356;49.386;8.688;2023-07-22T03:30:45;19.30;19.70
24217;DHT22;12356;49.386;8.688;2023-07-22T03:33:15;19.30;21.70
24217;DHT22;12356;49.386;8.688;2023-07-22T03:35:46;19.20;21.10
24217;DHT22;12356;49.386;8.688;2023-07-22T03:38:16;19.20;21.10
24217;DHT22;12356;49.386;8.688;2023-07-22T03:40:47;19.30;21.60
24217;DHT22;12356;49.386;8.688;2023-07-22T03:43:17;19.20;21.80
24217;DHT22;12356;49.386;8.688;2023-07-22T03:45:48;19.20;22.00
24217;DHT22;12356;49.386;8.688;2023-07-22T03:48:18;19.10;21.00
24217;DHT22;12356;49.386;8.688;2023-07-22T03:50:49;19.10;20.60
24217;DHT22;12356;49.386;8.688;2023-07-22T03:53:19;19.00;20.50
24217;DHT22;12356;49.386;8.688;2023-07-22T03:55:50;19.00;20.40
24217;DHT22;12356;49.386;8.688;2023-07-22T03:58:21;19.10;21.20
24217;DHT22;12356;49.386;8.688;2023-07-22T04:00:51;19.10;21.60
24217;DHT22;12356;49.386;8.688;2023-07-22T04:03:22;19.20;22.40
24217;DHT22;12356;49.386;8.688;2023-07-22T04:05:56;19.20;22.30
24217;DHT22;12356;49.386;8.688;2023-07-22T04:08:27;19.20;21.90
24217;DHT22;12356;49.386;8.688;2023-07-22T04:10:58;19.20;22.30
24217;DHT22;12356;49.386;8.688;2023-07-22T04:13:29;19.20;22.60
24217;DHT22;12356;49.386;8.688;2023-07-22T04:15:59;19.10;23.50
24217;DHT22;12356;49.386;8.688;2023-07-22T04:18:30;19.10;25.00
24217;DHT22;12356;49.386;8.688;2023-07-22T04:21:04;19.10;26.90
24217;DHT22;12356;49.386;8.688;2023-07-22T04:23:35;19.10;29.30
24217;DHT22;12356;49.386;8.688;2023-07-22T04:26:06;19.10;32.00
24217;DHT22;12356;49.386;8.688;2023-07-22T04:28:38;19.10;34.50
24217;DHT22;12356;49.386;8.688;2023-07-22T04:31:08;18.90;35.30
24217;DHT22;12356;49.386;8.688;2023-07-22T04:33:39;18.80;36.10
24217;DHT22;12356;49.386;8.688;2023-07-22T04:36:11;18.80;37.60
24217;DHT22;12356;49.386;8.688;2023-07-22T04:38:42;18.90;38.40
24217;DHT22;12356;49.386;8.688;2023-07-22T04:41:13;18.90;39.30
24217;DHT22;12356;49.386;8.688;2023-07-22T04:43:43;18.90;39.60
24217;DHT22;12356;49.386;8.688;2023-07-22T04:46:14;18.90;39.20
24217;DHT22;12356;49.386;8.688;2023-07-22T04:48:45;19.00;38.70
24217;DHT22;12356;49.386;8.688;2023-07-22T04:51:16;18.90;39.60
24217;DHT22;12356;49.386;8.688;2023-07-22T04:53:47;18.90;40.30
24217;DHT22;12356;49.386;8.688;2023-07-22T04:56:17;18.80;39.50
24217;DHT22;12356;49.386;8.688;2023-07-22T04:58:48;18.90;40.00
24217;DHT22;12356;49.386;8.688;2023-07-22T05:01:19;18.90;41.10
24217;DHT22;12356;49.386;8.688;2023-07-22T05:03:50;18.90;42.20
24217;DHT22;12356;49.386;8.688;2023-07-22T05:06:21;18.80;42.40
24217;DHT22;12356;49.386;8.688;2023-07-22T05:08:52;18.90;43.00
24217;DHT22;12356;49.386;8.688;2023-07-22T05:11:22;18.90;42.90
24217;DHT22;12356;49.386;8.688;2023-07-22T05:13:53;18.80;44.20
24217;DHT22;12356;49.386;8.688;2023-07-22T05:16:24;18.70;44.00
24217;DHT22;12356;49.386;8.688;2023-07-22T05:18:55;18.70;43.40
24217;DHT22;12356;49.386;8.688;2023-07-22T05:21:25;18.70;42.20
24217;DHT22;12356;49.386;8.688;2023-07-22T05:23:56;18.70;43.00
24217;DHT22;12356;49.386;8.688;2023-07-22T05:26:26;18.80;43.10
24217;DHT22;12356;49.386;8.688;2023-07-22T05:28:57;18.70;42.60
24217;DHT22;12356;49.386;8.688;2023-07-22T05:31:27;18.70;43.10
24217;DHT22;12356;49.386;8.688;2023-07-22T05:33:58;18.70;42.50
24217;DHT22;12356;49.386;8.688;2023-07-22T05:36:28;18.70;41.60
24217;DHT22;12356;49.386;8.688;2023-07-22T05:38:59;18.70;41.70
24217;DHT22;12356;49.386;8.688;2023-07-22T05:41:30;18.70;40.10
24217;DHT22;12356;49.386;8.688;2023-07-22T05:44:00;18.60;35.80
24217;DHT22;12356;49.386;8.688;2023-07-22T05:46:31;18.60;35.20
24217;DHT22;12356;49.386;8.688;2023-07-22T05:49:01;18.70;36.00
24217;DHT22;12356;49.386;8.688;2023-07-22T05:51:32;18.70;36.80
24217;DHT22;12356;49.386;8.688;2023-07-22T05:54:03;18.80;37.70
24217;DHT22;12356;49.386;8.688;2023-07-22T05:56:33;18.80;37.10
24217;DHT22;12356;49.386;8.688;2023-07-22T05:59:04;18.90;37.00
24217;DHT22;12356;49.386;8.688;2023-07-22T06:01:35;18.90;36.30
24217;DHT22;12356;49.386;8.688;2023-07-22T06:04:05;18.90;35.80
24217;DHT22;12356;49.386;8.688;2023-07-22T06:06:36;18.90;36.10
24217;DHT22;12356;49.386;8.688;2023-07-22T06:09:06;18.90;35.30
24217;DHT22;12356;49.386;8.688;2023-07-22T06:11:37;18.90;33.90
24217;DHT22;12356;49.386;8.688;2023-07-22T06:14:07;18.90;33.10
24217;DHT22;12356;49.386;8.688;2023-07-22T06:16:38;18.90;33.10
24217;DHT22;12356;49.386;8.688;2023-07-22T06:19:09;19.00;31.90
24217;DHT22;12356;49.386;8.688;2023-07-22T06:21:39;19.00;32.60
24217;DHT22;12356;49.386;8.688;2023-07-22T06:24:10;19.00;31.90
24217;DHT22;12356;49.386;8.688;2023-07-22T06:26:40;19.00;32.00
24217;DHT22;12356;49.386;8.688;2023-07-22T06:29:11;19.00;31.90
24217;DHT22;12356;49.386;8.688;2023-07-22T06:31:42;19.10;32.00
24217;DHT22;12356;49.386;8.688;2023-07-22T06:34:12;19.10;30.00
24217;DHT22;12356;49.386;8.688;2023-07-22T06:36:43;19.00;27.20
24217;DHT22;12356;49.386;8.688;2023-07-22T06:39:13;19.00;27.10
24217;DHT22;12356;49.386;8.688;2023-07-22T06:41:44;19.10;26.90
24217;DHT22;12356;49.386;8.688;2023-07-22T06:44:14;19.00;26.60
24217;DHT22;12356;49.386;8.688;2023-07-22T06:46:45;19.10;26.20
24217;DHT22;12356;49.386;8.688;2023-07-22T06:49:16;19.10;26.10
24217;DHT22;12356;49.386;8.688;2023-07-22T06:51:47;19.10;26.50
24217;DHT22;12356;49.386;8.688;2023-07-22T06:54:18;19.10;26.60
24217;DHT22;12356;49.386;8.688;2023-07-22T06:56:48;19.10;26.50
24217;DHT22;12356;49.386;8.688;2023-07-22T06:59:19;19.20;24.60
24217;DHT22;12356;49.386;8.688;2023-07-22T07:01:50;19.10;24.40
24217;DHT22;12356;49.386;8.688;2023-07-22T07:04:20;19.20;25.90
24217;DHT22;12356;49.386;8.688;2023-07-22T07:06:51;19.20;25.00
24217;DHT22;12356;49.386;8.688;2023-07-22T07:09:21;19.20;24.90
24217;DHT22;12356;49.386;8.688;2023-07-22T07:11:52;19.20;24.20
24217;DHT22;12356;49.386;8.688;2023-07-22T07:14:23;19.20;24.30
24217;DHT22;12356;49.386;8.688;2023-07-22T07:16:54;19.20;24.00
24217;DHT22;12356;49.386;8.688;2023-07-22T07:19:26;19.20;23.70
24217;DHT22;12356;49.386;8.688;2023-07-22T07:21:57;19.30;23.90
24217;DHT22;12356;49.386;8.688;2023-07-22T07:24:27;19.30;23.90
24217;DHT22;12356;49.386;8.688;2023-07-22T07:26:58;19.30;23.60
24217;DHT22;12356;49.386;8.688;2023-07-22T07:29:29;19.30;23.60
24217;DHT22;12356;49.386;8.688;2023-07-22T07:31:59;19.40;23.80
24217;DHT22;12356;49.386;8.688;2023-07-22T07:34:30;19.40;24.20
24217;DHT22;12356;49.386;8.688;2023-07-22T07:37:00;19.40;24.40
24217;DHT22;12356;49.386;8.688;2023-07-22T07:39:31;19.40;24.40
24217;DHT22;12356;49.386;8.688;2023-07-22T07:42:01;19.50;24.40
24217;DHT22;12356;49.386;8.688;2023-07-22T07:44:32;19.60;24.70
24217;DHT22;12356;49.386;8.688;2023-07-22T07:47:02;19.60;24.70
24217;DHT22;12356;49.386;8.688;2023-07-22T07:49:33;19.60;23.70
24217;DHT22;12356;49.386;8.688;2023-07-22T07:52:04;19.60;22.80
24217;DHT22;12356;49.386;8.688;2023-07-22T07:54:35;19.60;22.80
24217;DHT22;12356;49.386;8.688;2023-07-22T07:57:06;19.70;23.50
24217;DHT22;12356;49.386;8.688;2023-07-22T07:59:36;19.70;22.40
24217;DHT22;12356;49.386;8.688;2023-07-22T08:02:07;19.70;21.70
24217;DHT22;12356;49.386;8.688;2023-07-22T08:04:39;19.70;22.10
24217;DHT22;12356;49.386;8.688;2023-07-22T08:07:10;19.80;22.40
24217;DHT22;12356;49.386;8.688;2023-07-22T08:09:47;19.90;21.70
24217;DHT22;12356;49.386;8.688;2023-07-22T08:12:19;19.90;21.90
24217;DHT22;12356;49.386;8.688;2023-07-22T08:14:51;19.90;21.40
24217;DHT22;12356;49.386;8.688;2023-07-22T08:17:22;19.90;20.60
24217;DHT22;12356;49.386;8.688;2023-07-22T08:19:53;19.90;20.20
24217;DHT22;12356;49.386;8.688;2023-07-22T08:22:23;19.90;19.60
24217;DHT22;12356;49.386;8.688;2023-07-22T08:24:54;19.90;19.50
24217;DHT22;12356;49.386;8.688;2023-07-22T08:27:24;19.90;19.90
24217;DHT22;12356;49.386;8.688;2023-07-22T08:29:55;19.90;20.00
24217;DHT22;12356;49.386;8.688;2023-07-22T08:32:25;19.90;20.60
24217;DHT22;12356;49.386;8.688;2023-07-22T08:34:56;19.90;21.00
24217;DHT22;12356;49.386;8.688;2023-07-22T08:37:27;20.00;20.20
24217;DHT22;12356;49.386;8.688;2023-07-22T08:39:57;20.00;20.10
24217;DHT22;12356;49.386;8.688;2023-07-22T08:42:28;20.00;20.00
24217;DHT22;12356;49.386;8.688;2023-07-22T08:45:03;20.10;20.20
24217;DHT22;12356;49.386;8.688;2023-07-22T08:47:35;20.10;20.20
24217;DHT22;12356;49.386;8.688;2023-07-22T08:50:08;20.20;19.90
24217;DHT22;12356;49.386;8.688;2023-07-22T08:52:40;20.20;19.00
24217;DHT22;12356;49.386;8.688;2023-07-22T08:55:10;20.20;18.30
24217;DHT22;12356;49.386;8.688;2023-07-22T08:57:41;20.30;18.70
24217;DHT22;12356;49.386;8.688;2023-07-22T09:00:12;20.40;18.70
24217;DHT22;12356;49.386;8.688;2023-07-22T09:02:43;20.50;17.10
24217;DHT22;12356;49.386;8.688;2023-07-22T09:05:15;20.60;16.30
24217;DHT22;12356;49.386;8.688;2023-07-22T09:07:47;20.60;15.90
24217;DHT22;12356;49.386;8.688;2023-07-22T09:10:19;20.70;15.10
24217;DHT22;12356;49.386;8.688;2023-07-22T09:12:51;20.80;14.40
24217;DHT22;12356;49.386;8.688;2023-07-22T09:15:22;20.90;14.50
24217;DHT22;12356;49.386;8.688;2023-07-22T09:17:54;21.00;14.30
24217;DHT22;12356;49.386;8.688;2023-07-22T09:20:24;21.10;14.60
24217;DHT22;12356;49.386;8.688;2023-07-22T09:22:56;21.10;13.70
24217;DHT22;12356;49.386;8.688;2023-07-22T09:25:28;21.20;13.30
24217;DHT22;12356;49.386;8.688;2023-07-22T09:27:59;21.30;11.20
24217;DHT22;12356;49.386;8.688;2023-07-22T09:30:34;21.40;12.80
24217;DHT22;12356;49.386;8.688;2023-07-22T09:33:22;21.40;12.20
24217;DHT22;12356;49.386;8.688;2023-07-22T09:35:54;21.50;9.70
24217;DHT22;12356;49.386;8.688;2023-07-22T09:38:25;21.60;9.60
24217;DHT22;12356;49.386;8.688;2023-07-22T09:40:55;21.60;9.40
24217;DHT22;12356;49.386;8.688;2023-07-22T09:43:26;21.70;10.20
24217;DHT22;12356;49.386;8.688;2023-07-22T09:46:09;21.70;8.30
24217;DHT22;12356;49.386;8.688;2023-07-22T09:48:45;21.70;7.00
24217;DHT22;12356;49.386;8.688;2023-07-22T09:51:16;21.70;7.40
24217;DHT22;12356;49.386;8.688;2023-07-22T09:53:51;21.70;7.30
24217;DHT22;12356;49.386;8.688;2023-07-22T09:56:29;21.80;6.90
24217;DHT22;12356;49.386;8.688;2023-07-22T09:59:04;21.80;6.20
24217;DHT22;12356;49.386;8.688;2023-07-22T10:01:38;21.90;7.40
24217;DHT22;12356;49.386;8.688;2023-07-22T10:04:10;21.90;6.00
24217;DHT22;12356;49.386;8.688;2023-07-22T10:06:42;22.00;5.80
24217;DHT22;12356;49.386;8.688;2023-07-22T10:09:14;22.20;6.70
24217;DHT22;12356;49.386;8.688;2023-07-22T10:11:45;22.30;6.40
24217;DHT22;12356;49.386;8.688;2023-07-22T10:14:17;22.30;4.50
24217;DHT22;12356;49.386;8.688;2023-07-22T10:16:48;22.40;4.60
24217;DHT22;12356;49.386;8.688;2023-07-22T10:19:21;22.40;2.30
24217;DHT22;12356;49.386;8.688;2023-07-22T10:21:52;22.50;1.60
24217;DHT22;12356;49.386;8.688;2023-07-22T10:24:24;22.50;1.20
24217;DHT22;12356;49.386;8.688;2023-07-22T10:26:54;22.50;2.10
24217;DHT22;12356;49.386;8.688;2023-07-22T10:29:25;22.60;1.80
24217;DHT22;12356;49.386;8.688;2023-07-22T10:31:56;22.60;2.20
24217;DHT22;12356;49.386;8.688;2023-07-22T10:34:27;22.70;1.00
24217;DHT22;12356;49.386;8.688;2023-07-22T10:36:58;22.80;1.00
24217;DHT22;12356;49.386;8.688;2023-07-22T10:39:29;22.90;1.00
24217;DHT22;12356;49.386;8.688;2023-07-22T10:42:03;23.00;1.00
24217;DHT22;12356;49.386;8.688;2023-07-22T10:44:38;23.10;1.00
24217;DHT22;12356;49.386;8.688;2023-07-22T10:47:09;23.20;1.00
24217;DHT22;12356;49.386;8.688;2023-07-22T10:49:45;23.30;1.00
24217;DHT22;12356;49.386;8.688;2023-07-22T10:52:37;23.30;1.00
24217;DHT22;12356;49.386;8.688;2023-07-22T10:55:19;23.40;1.00
24217;DHT22;12356;49.386;8.688;2023-07-22T10:57:54;23.40;1.00
24217;DHT22;12356;49.386;8.688;2023-07-22T11:00:29;23.40;1.00
24217;DHT22;12356;49.386;8.688;2023-07-22T11:03:10;23.40;1.00
24217;DHT22;12356;49.386;8.688;2023-07-22T11:05:50;23.40;1.00
24217;DHT22;12356;49.386;8.688;2023-07-22T11:08:39;23.40;1.00
24217;DHT22;12356;49.386;8.688;2023-07-22T11:11:10;23.40;1.00
24217;DHT22;12356;49.386;8.688;2023-07-22T11:13:41;23.30;1.00
24217;DHT22;12356;49.386;8.688;2023-07-22T11:16:12;23.30;1.00
24217;DHT22;12356;49.386;8.688;2023-07-22T11:18:43;23.30;1.00
24217;DHT22;12356;49.386;8.688;2023-07-22T11:21:13;23.30;1.00
24217;DHT22;12356;49.386;8.688;2023-07-22T11:23:44;23.30;1.00
24217;DHT22;12356;49.386;8.688;2023-07-22T11:26:15;23.30;1.00
24217;DHT22;12356;49.386;8.688;2023-07-22T11:28:46;23.30;1.00
24217;DHT22;12356;49.386;8.688;2023-07-22T11:31:17;23.30;1.00
24217;DHT22;12356;49.386;8.688;2023-07-22T11:33:47;23.40;1.00
24217;DHT22;12356;49.386;8.688;2023-07-22T11:36:18;23.40;1.00
24217;DHT22;12356;49.386;8.688;2023-07-22T11:38:49;23.50;1.00
24217;DHT22;12356;49.386;8.688;2023-07-22T11:41:20;23.50;1.00
24217;DHT22;12356;49.386;8.688;2023-07-22T11:43:51;23.60;1.00
24217;DHT22;12356;49.386;8.688;2023-07-22T11:46:22;23.70;1.00
24217;DHT22;12356;49.386;8.688;2023-07-22T11:48:53;23.80;1.00
24217;DHT22;12356;49.386;8.688;2023-07-22T11:51:24;23.80;1.00
24217;DHT22;12356;49.386;8.688;2023-07-22T11:53:55;23.90;1.00
24217;DHT22;12356;49.386;8.688;2023-07-22T11:56:27;24.00;1.00
24217;DHT22;12356;49.386;8.688;2023-07-22T11:58:58;24.10;1.00
24217;DHT22;12356;49.386;8.688;2023-07-22T12:01:32;24.10;1.00
24217;DHT22;12356;49.386;8.688;2023-07-22T12:04:12;24.20;1.00
24217;DHT22;12356;49.386;8.688;2023-07-22T12:06:43;24.10;1.00
24217;DHT22;12356;49.386;8.688;2023-07-22T12:09:14;24.10;1.00
24217;DHT22;12356;49.386;8.688;2023-07-22T12:11:45;24.10;1.00
24217;DHT22;12356;49.386;8.688;2023-07-22T12:14:15;24.10;1.00
24217;DHT22;12356;49.386;8.688;2023-07-22T12:16:47;24.10;1.00
24217;DHT22;12356;49.386;8.688;2023-07-22T12:19:17;24.10;1.00
24217;DHT22;12356;49.386;8.688;2023-07-22T12:21:48;24.10;1.00
24217;DHT22;12356;49.386;8.688;2023-07-22T12:24:19;24.10;1.00
24217;DHT22;12356;49.386;8.688;2023-07-22T12:26:49;24.20;1.00
24217;DHT22;12356;49.386;8.688;2023-07-22T12:29:20;24.20;1.00
24217;DHT22;12356;49.386;8.688;2023-07-22T12:31:52;24.20;1.00
24217;DHT22;12356;49.386;8.688;2023-07-22T12:34:23;24.20;1.00
24217;DHT22;12356;49.386;8.688;2023-07-22T12:36:53;24.20;1.00
24217;DHT22;12356;49.386;8.688;2023-07-22T12:39:24;24.20;1.00
24217;DHT22;12356;49.386;8.688;2023-07-22T12:41:54;24.20;1.00
24217;DHT22;12356;49.386;8.688;2023-07-22T12:44:25;24.20;1.00
24217;DHT22;12356;49.386;8.688;2023-07-22T12:46:55;24.10;1.00
24217;DHT22;12356;49.386;8.688;2023-07-22T12:49:26;24.10;1.00
24217;DHT22;12356;49.386;8.688;2023-07-22T12:51:56;24.10;1.00
24217;DHT22;12356;49.386;8.688;2023-07-22T12:54:33;24.00;1.00
24217;DHT22;12356;49.386;8.688;2023-07-22T12:57:04;24.00;1.00
24217;DHT22;12356;49.386;8.688;2023-07-22T12:59:35;24.00;1.00
24217;DHT22;12356;49.386;8.688;2023-07-22T13:02:06;24.00;1.00
24217;DHT22;12356;49.386;8.688;2023-07-22T13:04:36;24.10;1.00
24217;DHT22;12356;49.386;8.688;2023-07-22T13:07:07;24.10;1.00
24217;DHT22;12356;49.386;8.688;2023-07-22T13:09:37;24.10;1.00
24217;DHT22;12356;49.386;8.688;2023-07-22T13:12:08;24.10;1.00
24217;DHT22;12356;49.386;8.688;2023-07-22T13:14:39;24.10;1.00
24217;DHT22;12356;49.386;8.688;2023-07-22T13:17:09;24.20;1.00
24217;DHT22;12356;49.386;8.688;2023-07-22T13:19:40;24.30;1.00
24217;DHT22;12356;49.386;8.688;2023-07-22T13:22:10;24.40;1.00
24217;DHT22;12356;49.386;8.688;2023-07-22T13:24:41;24.50;1.00
24217;DHT22;12356;49.386;8.688;2023-07-22T13:27:11;24.60;1.00
24217;DHT22;12356;49.386;8.688;2023-07-22T13:29:42;24.70;1.00
24217;DHT22;12356;49.386;8.688;2023-07-22T13:32:13;24.70;1.00
24217;DHT22;12356;49.386;8.688;2023-07-22T13:34:43;24.70;1.00
24217;DHT22;12356;49.386;8.688;2023-07-22T13:37:14;24.60;1.00
24217;DHT22;12356;49.386;8.688;2023-07-22T13:39:45;24.60;1.00
24217;DHT22;12356;49.386;8.688;2023-07-22T13:42:15;24.70;1.00
24217;DHT22;12356;49.386;8.688;2023-07-22T13:44:46;24.70;1.00
24217;DHT22;12356;49.386;8.688;2023-07-22T13:47:16;24.60;1.00
24217;DHT22;12356;49.386;8.688;2023-07-22T13:49:47;24.60;1.00
24217;DHT22;12356;49.386;8.688;2023-07-22T13:52:17;24.70;1.00
24217;DHT22;12356;49.386;8.688;2023-07-22T13:54:48;24.70;1.00
24217;DHT22;12356;49.386;8.688;2023-07-22T13:57:19;24.80;1.00
24217;DHT22;12356;49.386;8.688;2023-07-22T13:59:49;24.90;1.00
24217;DHT22;12356;49.386;8.688;2023-07-22T14:02:20;25.00;1.00
24217;DHT22;12356;49.386;8.688;2023-07-22T14:04:50;25.00;1.00
24217;DHT22;12356;49.386;8.688;2023-07-22T14:07:21;25.10;1.00
24217;DHT22;12356;49.386;8.688;2023-07-22T14:09:51;25.20;1.00
24217;DHT22;12356;49.386;8.688;2023-07-22T14:12:23;25.20;1.00
24217;DHT22;12356;49.386;8.688;2023-07-22T14:14:54;25.20;1.00
24217;DHT22;12356;49.386;8.688;2023-07-22T14:17:24;25.20;1.00
24217;DHT22;12356;49.386;8.688;2023-07-22T14:19:55;25.20;1.00
24217;DHT22;12356;49.386;8.688;2023-07-22T14:22:26;25.20;1.00
24217;DHT22;12356;49.386;8.688;2023-07-22T14:24:56;25.30;1.00
24217;DHT22;12356;49.386;8.688;2023-07-22T14:27:27;25.30;1.00
24217;DHT22;12356;49.386;8.688;2023-07-22T14:29:57;25.40;1.00
24217;DHT22;12356;49.386;8.688;2023-07-22T14:32:28;25.40;1.00
24217;DHT22;12356;49.386;8.688;2023-07-22T14:34:59;25.40;1.00
24217;DHT22;12356;49.386;8.688;2023-07-22T14:37:29;25.50;1.00
24217;DHT22;12356;49.386;8.688;2023-07-22T14:40:00;25.50;1.00
24217;DHT22;12356;49.386;8.688;2023-07-22T14:42:30;25.60;1.00
24217;DHT22;12356;49.386;8.688;2023-07-22T14:45:01;25.50;1.00
24217;DHT22;12356;49.386;8.688;2023-07-22T14:47:32;25.60;1.00
24217;DHT22;12356;49.386;8.688;2023-07-22T14:50:02;25.60;1.00
24217;DHT22;12356;49.386;8.688;2023-07-22T14:52:33;25.60;1.00
24217;DHT22;12356;49.386;8.688;2023-07-22T14:55:04;25.70;1.00
24217;DHT22;12356;49.386;8.688;2023-07-22T14:57:34;25.60;1.00
24217;DHT22;12356;49.386;8.688;2023-07-22T15:00:06;25.70;1.00
24217;DHT22;12356;49.386;8.688;2023-07-22T15:02:37;25.70;1.00
24217;DHT22;12356;49.386;8.688;2023-07-22T15:05:07;25.70;1.00
24217;DHT22;12356;49.386;8.688;2023-07-22T15:07:38;25.80;1.00
24217;DHT22;12356;49.386;8.688;2023-07-22T15:10:09;25.80;1.00
24217;DHT22;12356;49.386;8.688;2023-07-22T15:12:40;25.80;1.00
24217;DHT22;12356;49.386;8.688;2023-07-22T15:15:11;25.70;1.00
24217;DHT22;12356;49.386;8.688;2023-07-22T15:17:42;25.70;1.00
24217;DHT22;12356;49.386;8.688;2023-07-22T15:20:13;25.70;1.00
24217;DHT22;12356;49.386;8.688;2023-07-22T15:22:43;25.70;1.00
24217;DHT22;12356;49.386;8.688;2023-07-22T15:25:14;25.60;1.00
24217;DHT22;12356;49.386;8.688;2023-07-22T15:27:45;25.60;1.00
24217;DHT22;12356;49.386;8.688;2023-07-22T15:30:15;25.40;1.00
24217;DHT22;12356;49.386;8.688;2023-07-22T15:32:46;25.40;1.00
24217;DHT22;12356;49.386;8.688;2023-07-22T15:35:17;25.40;1.00
24217;DHT22;12356;49.386;8.688;2023-07-22T15:37:47;25.40;1.00
24217;DHT22;12356;49.386;8.688;2023-07-22T15:40:18;25.50;1.00
24217;DHT22;12356;49.386;8.688;2023-07-22T15:42:49;25.50;1.00
24217;DHT22;12356;49.386;8.688;2023-07-22T15:45:19;25.60;1.00
24217;DHT22;12356;49.386;8.688;2023-07-22T15:47:50;25.60;1.00
24217;DHT22;12356;49.386;8.688;2023-07-22T15:50:20;25.60;1.00
24217;DHT22;12356;49.386;8.688;2023-07-22T15:52:51;25.50;1.00
24217;DHT22;12356;49.386;8.688;2023-07-22T15:55:21;25.60;1.00
24217;DHT22;12356;49.386;8.688;2023-07-22T15:57:52;25.50;1.00
24217;DHT22;12356;49.386;8.688;2023-07-22T16:00:22;25.50;1.00
24217;DHT22;12356;49.386;8.688;2023-07-22T16:02:53;25.50;1.00
24217;DHT22;12356;49.386;8.688;2023-07-22T16:05:23;25.60;1.00